createdAt,value
2023-03-13T00:00:28.427Z,4.20
2023-03-13T00:03:30.004Z,4.10
2023-03-13T00:06:34.904Z,4.23
2023-03-13T00:09:36.589Z,3.77
2023-03-13T00:12:38.263Z,4.20
2023-03-13T00:15:39.866Z,4.63
2023-03-13T00:18:49.716Z,3.30
2023-03-13T00:21:51.381Z,3.67
2023-03-13T00:24:52.940Z,4.33
2023-03-13T00:27:54.596Z,3.70
2023-03-13T00:31:04.100Z,3.40
2023-03-13T00:34:05.741Z,3.50
2023-03-13T00:37:07.501Z,4.20
2023-03-13T00:40:09.895Z,2.93
2023-03-13T00:43:11.527Z,3.23
2023-03-13T00:46:15.306Z,3.93
2023-03-13T00:49:17.018Z,3.60
2023-03-13T00:52:18.573Z,3.50
2023-03-13T00:55:20.295Z,2.97
2023-03-13T00:58:22.844Z,3.90
2023-03-13T01:01:27.692Z,5.00
2023-03-13T01:04:29.268Z,2.90
2023-03-13T01:07:30.894Z,3.10
2023-03-13T01:10:32.475Z,2.87
2023-03-13T01:13:34.793Z,3.37
2023-03-13T01:16:37.470Z,3.87
2023-03-13T01:19:39.147Z,4.40
2023-03-13T01:22:40.711Z,3.43
2023-03-13T01:25:42.316Z,3.50
2023-03-13T01:28:44.133Z,3.53
2023-03-13T01:31:45.761Z,3.10
2023-03-13T01:34:47.368Z,3.67
2023-03-13T01:37:48.929Z,3.90
2023-03-13T01:40:50.492Z,4.20
2023-03-13T01:43:52.992Z,3.77
2023-03-13T01:46:54.565Z,4.00
2023-03-13T01:49:56.204Z,3.40
2023-03-13T01:52:57.850Z,2.80
2023-03-13T01:56:02.297Z,3.37
2023-03-13T01:59:06.397Z,3.40
2023-03-13T02:02:08.610Z,3.33
2023-03-13T02:05:10.490Z,3.47
2023-03-13T02:08:18.864Z,4.57
2023-03-13T02:11:40.549Z,3.40
2023-03-13T02:14:45.351Z,4.27
2023-03-13T02:17:48.764Z,2.60
2023-03-13T02:20:54.448Z,3.70
2023-03-13T02:24:07.692Z,3.50
2023-03-13T02:27:09.275Z,3.50
2023-03-13T02:30:12.123Z,3.00
2023-03-13T02:33:15.114Z,3.30
2023-03-13T02:36:17.624Z,3.27
2023-03-13T02:39:22.341Z,2.57
2023-03-13T02:42:24.975Z,3.37
2023-03-13T02:45:26.588Z,3.40
2023-03-13T02:48:37.028Z,3.07
2023-03-13T02:51:43.102Z,2.67
2023-03-13T02:54:47.691Z,3.30
2023-03-13T02:57:49.756Z,4.47
2023-03-13T03:00:52.650Z,2.83
2023-03-13T03:03:54.357Z,3.50
2023-03-13T03:06:56.186Z,3.80
2023-03-13T03:09:57.719Z,3.67
2023-03-13T03:12:59.249Z,3.40
2023-03-13T03:16:09.377Z,3.07
2023-03-13T03:19:11.375Z,2.90
2023-03-13T03:22:13.028Z,3.53
2023-03-13T03:25:14.706Z,3.07
2023-03-13T03:28:16.265Z,3.33
2023-03-13T03:31:18.201Z,2.77
2023-03-13T03:34:20.272Z,2.93
2023-03-13T03:37:21.834Z,3.00
2023-03-13T03:40:23.404Z,3.30
2023-03-13T03:43:25.274Z,3.47
2023-03-13T03:46:26.878Z,2.93
2023-03-13T03:49:28.522Z,4.50
2023-03-13T03:52:30.068Z,3.30
2023-03-13T03:55:33.165Z,3.03
2023-03-13T03:58:36.422Z,3.93
2023-03-13T04:01:37.985Z,2.63
2023-03-13T04:04:39.626Z,3.10
2023-03-13T04:07:41.215Z,2.40
2023-03-13T04:10:42.797Z,2.20
2023-03-13T04:13:44.345Z,3.17
2023-03-13T04:16:46.262Z,2.30
2023-03-13T04:19:47.987Z,2.30
2023-03-13T04:22:49.573Z,2.43
2023-03-13T04:25:51.732Z,1.70
2023-03-13T04:28:53.297Z,2.73
2023-03-13T04:31:55.461Z,2.10
2023-03-13T04:34:57.010Z,2.47
2023-03-13T04:37:58.781Z,3.73
2023-03-13T04:41:00.383Z,2.00
2023-03-13T04:44:02.050Z,2.30
2023-03-13T04:47:03.970Z,2.03
2023-03-13T04:50:06.204Z,2.40
2023-03-13T04:53:07.792Z,2.40
2023-03-13T04:56:11.164Z,2.60
2023-03-13T04:59:13.142Z,1.90
2023-03-13T05:02:14.729Z,2.23
2023-03-13T05:05:16.450Z,2.43
2023-03-13T05:08:18.232Z,2.00
2023-03-13T05:11:19.805Z,2.20
2023-03-13T05:14:21.736Z,2.10
2023-03-13T05:17:23.385Z,2.20
2023-03-13T05:20:24.957Z,2.53
2023-03-13T05:23:26.601Z,2.07
2023-03-13T05:26:28.206Z,2.07
2023-03-13T05:29:29.879Z,3.23
2023-03-13T05:32:31.554Z,2.47
2023-03-13T05:35:33.274Z,2.70
2023-03-13T05:38:34.994Z,2.47
2023-03-13T05:41:36.566Z,2.70
2023-03-13T05:44:38.194Z,2.10
2023-03-13T05:47:39.962Z,2.20
2023-03-13T05:50:41.580Z,2.30
2023-03-13T05:53:43.270Z,2.43
2023-03-13T05:56:44.914Z,1.97
2023-03-13T05:59:46.567Z,2.20
2023-03-13T06:02:48.227Z,2.90
2023-03-13T06:05:49.775Z,2.30
2023-03-13T06:08:53.595Z,2.10
2023-03-13T06:11:55.392Z,2.07
2023-03-13T06:14:56.990Z,2.40
2023-03-13T06:17:58.556Z,2.07
2023-03-13T06:21:01.427Z,2.37
2023-03-13T06:24:03.151Z,2.00
2023-03-13T06:27:04.708Z,2.27
2023-03-13T06:30:06.680Z,2.07
2023-03-13T06:33:08.494Z,2.40
2023-03-13T06:36:10.563Z,2.30
2023-03-13T06:39:12.683Z,2.00
2023-03-13T06:42:14.251Z,1.80
2023-03-13T06:45:16.044Z,1.73
2023-03-13T06:48:17.975Z,1.83
2023-03-13T06:51:21.747Z,1.60
2023-03-13T06:54:23.355Z,1.70
2023-03-13T06:57:24.971Z,1.50
2023-03-13T07:00:26.674Z,1.60
2023-03-13T07:03:29.076Z,1.33
2023-03-13T07:06:30.820Z,1.30
2023-03-13T07:09:32.399Z,1.50
2023-03-13T07:12:37.614Z,1.17
2023-03-13T07:15:39.216Z,1.33
2023-03-13T07:18:44.721Z,1.67
2023-03-13T07:21:46.799Z,1.30
2023-03-13T07:24:48.822Z,1.50
2023-03-13T07:27:52.392Z,1.20
2023-03-13T07:30:54.465Z,1.47
2023-03-13T07:33:56.482Z,1.30
2023-03-13T07:36:58.246Z,1.20
2023-03-13T07:39:59.825Z,1.30
2023-03-13T07:43:01.362Z,1.30
2023-03-13T07:46:07.478Z,1.30
2023-03-13T07:49:09.121Z,1.40
2023-03-13T07:52:10.785Z,1.40
2023-03-13T07:55:12.484Z,1.48
2023-03-13T07:58:14.040Z,1.40
2023-03-13T08:01:26.078Z,1.50
2023-03-13T08:04:30.325Z,1.67
2023-03-13T08:07:32.437Z,1.73
2023-03-13T08:10:34.715Z,1.90
2023-03-13T08:13:37.247Z,2.27
2023-03-13T08:16:38.856Z,2.07
2023-03-13T08:19:40.482Z,2.03
2023-03-13T08:22:42.115Z,2.40
2023-03-13T08:25:43.720Z,1.50
2023-03-13T08:28:47.284Z,2.40
2023-03-13T08:31:52.433Z,3.40
2023-03-13T08:34:54.009Z,1.93
2023-03-13T08:37:55.608Z,2.10
2023-03-13T08:40:57.702Z,1.80
2023-03-13T08:43:59.521Z,2.00
2023-03-13T08:47:01.139Z,1.90
2023-03-13T08:50:03.756Z,1.90
2023-03-13T08:53:05.389Z,1.50
2023-03-13T08:56:08.529Z,2.10
2023-03-13T08:59:10.373Z,2.10
2023-03-13T09:02:12.028Z,1.80
2023-03-13T09:05:13.753Z,1.83
2023-03-13T09:08:15.633Z,2.20
2023-03-13T09:11:20.626Z,1.60
2023-03-13T09:14:22.197Z,1.80
2023-03-13T09:17:23.740Z,1.97
2023-03-13T09:20:25.337Z,2.00
2023-03-13T09:23:27.306Z,1.87
2023-03-13T09:26:29.039Z,2.33
2023-03-13T09:29:30.667Z,1.70
2023-03-13T09:32:32.464Z,2.30
2023-03-13T09:35:34.107Z,1.80
2023-03-13T09:38:36.812Z,2.03
2023-03-13T09:42:03.001Z,2.40
2023-03-13T09:45:13.804Z,2.10
2023-03-13T09:48:37.517Z,2.20
2023-03-13T09:51:42.738Z,2.10
2023-03-13T09:54:58.701Z,2.10
2023-03-13T09:58:04.454Z,1.70
2023-03-13T10:01:06.503Z,2.00
2023-03-13T10:04:13.182Z,2.30
2023-03-13T10:07:14.841Z,2.47
2023-03-13T10:10:27.775Z,2.73
2023-03-13T10:13:49.983Z,2.17
2023-03-13T10:17:01.527Z,2.30
2023-03-13T10:20:20.317Z,2.63
2023-03-13T10:23:32.281Z,2.37
2023-03-13T10:26:36.258Z,2.27
2023-03-13T10:29:38.649Z,2.63
2023-03-13T10:32:40.267Z,2.40
2023-03-13T10:35:43.722Z,2.33
2023-03-13T10:38:53.492Z,2.43
2023-03-13T10:42:23.789Z,2.30
2023-03-13T10:45:25.641Z,2.50
2023-03-13T10:48:35.718Z,2.83
2023-03-13T10:51:39.534Z,2.80
2023-03-13T10:54:45.363Z,2.70
2023-03-13T10:57:59.766Z,3.13
2023-03-13T11:01:18.341Z,2.77
2023-03-13T11:04:32.888Z,2.87
2023-03-13T11:07:40.305Z,2.63
2023-03-13T11:10:54.642Z,3.43
2023-03-13T11:14:13.752Z,2.70
2023-03-13T11:17:38.497Z,2.87
2023-03-13T11:20:41.539Z,3.20
2023-03-13T11:23:53.690Z,2.40
2023-03-13T11:27:08.133Z,3.23
2023-03-13T11:30:34.510Z,2.50
2023-03-13T11:33:40.897Z,2.53
2023-03-13T11:36:55.716Z,2.60
2023-03-13T11:40:35.067Z,2.43
2023-03-13T11:43:48.700Z,2.23
2023-03-13T11:47:06.546Z,2.13
2023-03-13T11:50:30.135Z,3.40
2023-03-13T11:54:00.549Z,2.80
2023-03-13T11:57:30.623Z,2.70
2023-03-13T12:00:40.284Z,2.53
2023-03-13T12:03:51.071Z,4.97
2023-03-13T12:07:04.567Z,3.67
2023-03-13T12:10:16.802Z,3.40
2023-03-13T12:13:25.853Z,3.10
2023-03-13T12:16:42.229Z,2.83
2023-03-13T12:19:54.274Z,3.00
2023-03-13T12:23:28.419Z,2.33
2023-03-13T12:26:37.080Z,3.07
2023-03-13T12:29:56.294Z,3.10
2023-03-13T12:33:24.404Z,2.57
2023-03-13T12:36:33.310Z,2.47
2023-03-13T12:39:52.460Z,2.83
2023-03-13T12:43:14.332Z,3.27
2023-03-13T12:46:37.635Z,3.20
2023-03-13T12:49:59.887Z,2.70
2023-03-13T12:53:32.679Z,2.83
2023-03-13T12:57:03.832Z,2.77
2023-03-13T13:00:16.509Z,3.20
2023-03-13T13:03:26.653Z,2.57
2023-03-13T13:06:49.855Z,3.00
2023-03-13T13:10:02.038Z,3.50
2023-03-13T13:13:15.204Z,3.17
2023-03-13T13:16:21.448Z,3.00
2023-03-13T13:19:23.014Z,4.20
2023-03-13T13:22:36.713Z,2.67
2023-03-13T13:25:38.418Z,3.00
2023-03-13T13:28:43.767Z,2.30
2023-03-13T13:32:01.282Z,4.20
2023-03-13T13:35:23.068Z,8.93
2023-03-13T13:38:34.358Z,4.60
2023-03-13T13:41:37.705Z,3.37
2023-03-13T13:45:01.986Z,3.67
2023-03-13T13:48:24.654Z,16.87
2023-03-13T13:51:26.358Z,5.20
2023-03-13T13:54:41.957Z,3.50
2023-03-13T13:57:45.686Z,3.33
2023-03-13T14:01:00.130Z,2.80
2023-03-13T14:04:19.490Z,2.03
2023-03-13T14:07:24.839Z,1.93
2023-03-13T14:10:39.854Z,2.10
2023-03-13T14:13:42.011Z,6.23
2023-03-13T14:16:56.942Z,2.00
2023-03-13T14:19:58.563Z,1.60
2023-03-13T14:23:11.636Z,1.83
2023-03-13T14:26:20.875Z,2.20
2023-03-13T14:29:26.005Z,2.10
2023-03-13T14:32:27.884Z,2.20
2023-03-13T14:35:29.586Z,2.10
2023-03-13T14:38:32.801Z,2.40
2023-03-13T14:41:44.643Z,2.20
2023-03-13T14:44:49.938Z,2.40
2023-03-13T14:47:53.247Z,3.00
2023-03-13T14:51:14.852Z,2.50
2023-03-13T14:54:30.222Z,2.40
2023-03-13T14:57:33.168Z,2.97
2023-03-13T15:00:38.290Z,4.53
2023-03-13T15:03:45.462Z,3.23
2023-03-13T15:06:47.042Z,3.17
2023-03-13T15:09:50.214Z,2.50
2023-03-13T15:12:52.293Z,1.87
2023-03-13T15:15:53.939Z,1.90
2023-03-13T15:18:56.231Z,1.87
2023-03-13T15:21:57.888Z,2.47
2023-03-13T15:25:07.900Z,2.00
2023-03-13T15:28:19.150Z,2.23
2023-03-13T15:31:26.680Z,1.97
2023-03-13T15:34:29.134Z,1.70
2023-03-13T15:37:31.595Z,1.37
2023-03-13T15:40:33.219Z,1.00
2023-03-13T15:43:35.984Z,1.60
2023-03-13T15:46:37.609Z,1.97
2023-03-13T15:49:39.283Z,2.13
2023-03-13T15:52:41.302Z,2.13
2023-03-13T15:55:43.083Z,2.40
2023-03-13T15:58:46.282Z,2.20
2023-03-13T16:01:48.406Z,2.07
2023-03-13T16:04:51.214Z,1.63
2023-03-13T16:07:52.823Z,2.53
2023-03-13T16:10:55.083Z,1.33
2023-03-13T16:13:57.491Z,1.80
2023-03-13T16:16:59.422Z,2.43
2023-03-13T16:20:01.040Z,2.07
2023-03-13T16:23:03.743Z,1.93
2023-03-13T16:26:13.433Z,3.73
2023-03-13T16:29:16.147Z,2.87
2023-03-13T16:32:20.160Z,3.30
2023-03-13T16:35:22.777Z,1.90
2023-03-13T16:38:25.005Z,1.97
2023-03-13T16:41:28.230Z,1.93
2023-03-13T16:44:29.789Z,1.90
2023-03-13T16:47:31.652Z,2.10
2023-03-13T16:50:38.043Z,2.27
2023-03-13T16:53:39.621Z,3.57
2023-03-13T16:56:43.088Z,2.27
2023-03-13T16:59:44.810Z,2.23
2023-03-13T17:02:46.473Z,1.80
2023-03-13T17:05:48.166Z,2.20
2023-03-13T17:08:49.889Z,1.80
2023-03-13T17:11:51.853Z,2.50
2023-03-13T17:14:53.486Z,1.73
2023-03-13T17:17:55.539Z,1.70
2023-03-13T17:20:57.197Z,1.97
2023-03-13T17:24:00.472Z,1.83
2023-03-13T17:27:02.231Z,1.87
2023-03-13T17:30:16.880Z,1.90
2023-03-13T17:33:18.434Z,2.20
2023-03-13T17:36:21.594Z,2.70
2023-03-13T17:39:24.786Z,2.10
2023-03-13T17:42:26.390Z,2.73
2023-03-13T17:45:28.039Z,3.60
2023-03-13T17:48:29.585Z,4.27
2023-03-13T17:51:33.202Z,3.30
2023-03-13T17:54:34.898Z,9.40
2023-03-13T17:57:36.790Z,11.13
2023-03-13T18:00:44.681Z,6.33
2023-03-13T18:03:46.884Z,5.07
2023-03-13T18:06:50.389Z,4.23
2023-03-13T18:09:52.054Z,3.60
2023-03-13T18:12:54.654Z,3.80
2023-03-13T18:15:56.271Z,2.93
2023-03-13T18:18:57.977Z,3.83
2023-03-13T18:21:59.572Z,3.23
2023-03-13T18:25:01.309Z,3.53
2023-03-13T18:28:03.376Z,3.20
2023-03-13T18:31:05.282Z,3.23
2023-03-13T18:34:07.185Z,3.27
2023-03-13T18:37:30.434Z,3.33
2023-03-13T18:40:32.087Z,3.30
2023-03-13T18:43:33.698Z,3.00
2023-03-13T18:46:35.341Z,2.90
2023-03-13T18:49:37.073Z,3.03
2023-03-13T18:52:38.877Z,2.40
2023-03-13T18:55:40.589Z,2.70
2023-03-13T18:58:43.725Z,2.23
2023-03-13T19:01:47.059Z,2.37
2023-03-13T19:04:48.728Z,2.10
2023-03-13T19:07:50.453Z,1.00
2023-03-13T19:10:52.064Z,1.27
2023-03-13T19:13:54.057Z,1.10
2023-03-13T19:16:57.525Z,0.80
2023-03-13T19:19:59.440Z,0.93
2023-03-13T19:23:01.105Z,1.00
2023-03-13T19:26:02.866Z,1.30
2023-03-13T19:29:12.410Z,1.30
2023-03-13T19:32:18.721Z,1.27
2023-03-13T19:35:21.667Z,1.00
2023-03-13T19:38:23.384Z,0.97
2023-03-13T19:41:25.133Z,0.97
2023-03-13T19:44:26.865Z,1.20
2023-03-13T19:47:28.998Z,1.20
2023-03-13T19:50:31.469Z,0.80
2023-03-13T19:53:34.497Z,1.17
2023-03-13T19:56:36.712Z,1.00
2023-03-13T19:59:39.966Z,2.97
2023-03-13T20:02:41.749Z,2.17
2023-03-13T20:05:43.434Z,1.30
2023-03-13T20:08:46.047Z,1.67
2023-03-13T20:11:47.716Z,1.77
2023-03-13T20:14:49.305Z,1.57
2023-03-13T20:17:51.180Z,1.13
2023-03-13T20:20:52.807Z,1.87
2023-03-13T20:23:54.610Z,2.03
2023-03-13T20:26:56.499Z,1.50
2023-03-13T20:29:58.120Z,1.77
2023-03-13T20:33:00.188Z,1.10
2023-03-13T20:36:07.718Z,1.13
2023-03-13T20:39:09.350Z,1.40
2023-03-13T20:42:11.510Z,0.93
2023-03-13T20:45:13.209Z,0.80
2023-03-13T20:48:15.556Z,1.30
2023-03-13T20:51:17.500Z,1.10
2023-03-13T20:54:19.201Z,1.17
2023-03-13T20:57:21.098Z,1.03
2023-03-13T21:00:23.303Z,1.30
2023-03-13T21:03:25.001Z,0.90
2023-03-13T21:06:27.289Z,1.17
2023-03-13T21:09:29.547Z,0.90
2023-03-13T21:12:31.181Z,1.30
2023-03-13T21:15:33.560Z,0.90
2023-03-13T21:18:35.770Z,1.20
2023-03-13T21:21:37.962Z,1.00
2023-03-13T21:24:40.262Z,1.00
2023-03-13T21:27:43.700Z,1.40
2023-03-13T21:30:45.324Z,1.40
2023-03-13T21:33:47.287Z,1.03
2023-03-13T21:36:48.855Z,1.17
2023-03-13T21:39:53.660Z,1.43
2023-03-13T21:42:56.097Z,1.57
2023-03-13T21:46:00.548Z,1.40
2023-03-13T21:49:02.293Z,1.30
2023-03-13T21:52:04.161Z,1.10
2023-03-13T21:55:08.040Z,1.10
2023-03-13T21:58:09.693Z,1.00
2023-03-13T22:01:12.492Z,1.07
2023-03-13T22:04:14.379Z,1.37
2023-03-13T22:07:17.161Z,1.03
2023-03-13T22:10:18.855Z,1.10
2023-03-13T22:13:20.997Z,1.10
2023-03-13T22:16:25.297Z,1.00
2023-03-13T22:19:26.986Z,1.30
2023-03-13T22:22:28.630Z,1.30
2023-03-13T22:25:30.303Z,1.20
2023-03-13T22:28:31.962Z,1.33
2023-03-13T22:31:33.781Z,1.37
2023-03-13T22:34:35.384Z,1.33
2023-03-13T22:37:37.047Z,1.50
2023-03-13T22:40:38.788Z,1.30
2023-03-13T22:43:40.456Z,1.17
2023-03-13T22:46:42.210Z,1.50
2023-03-13T22:49:44.154Z,1.57
2023-03-13T22:52:45.746Z,1.73
2023-03-13T22:55:47.511Z,1.50
2023-03-13T22:58:49.133Z,1.70
2023-03-13T23:01:51.103Z,2.00
2023-03-13T23:04:57.605Z,1.40
2023-03-13T23:07:59.260Z,1.73
2023-03-13T23:11:02.677Z,1.90
2023-03-13T23:14:04.336Z,1.97
2023-03-13T23:17:06.148Z,1.87
2023-03-13T23:20:12.861Z,2.00
2023-03-13T23:23:14.516Z,2.10
2023-03-13T23:26:16.691Z,1.40
2023-03-13T23:29:18.347Z,2.07
2023-03-13T23:32:20.020Z,1.87
2023-03-13T23:35:22.099Z,1.90
2023-03-13T23:38:25.329Z,1.70
2023-03-13T23:41:26.916Z,1.43
2023-03-13T23:44:31.380Z,1.40
2023-03-13T23:47:33.842Z,1.70
2023-03-13T23:50:36.505Z,1.30
2023-03-13T23:53:39.654Z,1.30
2023-03-13T23:56:41.331Z,1.40
2023-03-13T23:59:44.146Z,1.43
